sensor_id;sensor_type;location;lat;lon;timestamp;temperature;humidity
13589;DHT22;6865;52.552;13.434;2023-07-20T00:00:45;16.70;99.90
13589;DHT22;6865;52.552;13.434;2023-07-20T00:03:14;16.60;99.90
13589;DHT22;6865;52.552;13.434;2023-07-20T00:05:43;16.70;99.90
13589;DHT22;6865;52.552;13.434;2023-07-20T00:08:11;16.70;99.90
13589;DHT22;6865;52.552;13.434;2023-07-20T00:10:39;16.70;99.90
13589;DHT22;6865;52.552;13.434;2023-07-20T00:13:06;16.60;99.90
13589;DHT22;6865;52.552;13.434;2023-07-20T00:15:33;16.50;99.90
13589;DHT22;6865;52.552;13.434;2023-07-20T00:18:00;16.40;99.90
13589;DHT22;6865;52.552;13.434;2023-07-20T00:20:26;16.40;99.90
13589;DHT22;6865;52.552;13.434;2023-07-20T00:22:53;16.60;99.90
13589;DHT22;6865;52.552;13.434;2023-07-20T00:25:21;16.50;99.90
13589;DHT22;6865;52.552;13.434;2023-07-20T00:27:48;16.40;99.90
13589;DHT22;6865;52.552;13.434;2023-07-20T00:30:15;15.70;99.90
13589;DHT22;6865;52.552;13.434;2023-07-20T00:32:42;16.40;99.90
13589;DHT22;6865;52.552;13.434;2023-07-20T00:35:10;16.40;99.90
13589;DHT22;6865;52.552;13.434;2023-07-20T00:37:39;16.30;99.90
13589;DHT22;6865;52.552;13.434;2023-07-20T00:40:06;16.30;99.90
13589;DHT22;6865;52.552;13.434;2023-07-20T00:42:35;16.20;99.90
13589;DHT22;6865;52.552;13.434;2023-07-20T00:45:02;16.20;99.90
13589;DHT22;6865;52.552;13.434;2023-07-20T00:47:30;16.10;99.90
13589;DHT22;6865;52.552;13.434;2023-07-20T00:49:57;16.10;99.90
13589;DHT22;6865;52.552;13.434;2023-07-20T00:52:25;16.10;99.90
13589;DHT22;6865;52.552;13.434;2023-07-20T00:54:52;16.00;99.90
13589;DHT22;6865;52.552;13.434;2023-07-20T00:57:24;16.00;99.90
13589;DHT22;6865;52.552;13.434;2023-07-20T00:59:50;16.00;99.90
13589;DHT22;6865;52.552;13.434;2023-07-20T01:02:17;16.00;99.90
13589;DHT22;6865;52.552;13.434;2023-07-20T01:04:44;16.00;99.90
13589;DHT22;6865;52.552;13.434;2023-07-20T01:07:14;15.90;99.90
13589;DHT22;6865;52.552;13.434;2023-07-20T01:12:47;15.90;99.90
13589;DHT22;6865;52.552;13.434;2023-07-20T01:15:14;15.90;99.90
13589;DHT22;6865;52.552;13.434;2023-07-20T01:17:41;15.90;99.90
13589;DHT22;6865;52.552;13.434;2023-07-20T01:20:09;15.90;99.90
13589;DHT22;6865;52.552;13.434;2023-07-20T01:23:21;15.90;99.90
13589;DHT22;6865;52.552;13.434;2023-07-20T01:28:48;16.00;99.90
13589;DHT22;6865;52.552;13.434;2023-07-20T01:31:27;16.00;99.90
13589;DHT22;6865;52.552;13.434;2023-07-20T01:33:57;16.00;99.90
13589;DHT22;6865;52.552;13.434;2023-07-20T01:36:26;16.10;99.90
13589;DHT22;6865;52.552;13.434;2023-07-20T01:38:54;16.00;99.90
13589;DHT22;6865;52.552;13.434;2023-07-20T01:41:22;16.00;99.90
13589;DHT22;6865;52.552;13.434;2023-07-20T01:43:49;16.10;99.90
13589;DHT22;6865;52.552;13.434;2023-07-20T01:46:16;16.10;99.90
13589;DHT22;6865;52.552;13.434;2023-07-20T01:48:43;16.20;99.90
13589;DHT22;6865;52.552;13.434;2023-07-20T01:51:09;16.20;99.90
13589;DHT22;6865;52.552;13.434;2023-07-20T01:53:36;16.30;99.90
13589;DHT22;6865;52.552;13.434;2023-07-20T01:56:03;16.20;99.90
13589;DHT22;6865;52.552;13.434;2023-07-20T01:58:29;16.20;99.90
13589;DHT22;6865;52.552;13.434;2023-07-20T02:00:56;16.10;99.90
13589;DHT22;6865;52.552;13.434;2023-07-20T02:03:23;16.10;99.90
13589;DHT22;6865;52.552;13.434;2023-07-20T02:05:52;16.10;99.90
13589;DHT22;6865;52.552;13.434;2023-07-20T02:08:19;16.20;99.90
13589;DHT22;6865;52.552;13.434;2023-07-20T02:10:49;16.20;99.90
13589;DHT22;6865;52.552;13.434;2023-07-20T02:13:16;16.40;99.90
13589;DHT22;6865;52.552;13.434;2023-07-20T02:15:42;16.40;99.90
13589;DHT22;6865;52.552;13.434;2023-07-20T02:18:09;16.40;99.90
13589;DHT22;6865;52.552;13.434;2023-07-20T02:20:36;16.30;99.90
13589;DHT22;6865;52.552;13.434;2023-07-20T02:23:03;16.20;99.90
13589;DHT22;6865;52.552;13.434;2023-07-20T02:25:29;16.20;99.90
13589;DHT22;6865;52.552;13.434;2023-07-20T02:27:56;16.40;99.90
13589;DHT22;6865;52.552;13.434;2023-07-20T02:30:23;16.40;99.90
13589;DHT22;6865;52.552;13.434;2023-07-20T02:32:50;16.50;99.90
13589;DHT22;6865;52.552;13.434;2023-07-20T02:35:16;16.40;99.90
13589;DHT22;6865;52.552;13.434;2023-07-20T02:37:43;16.50;99.90
13589;DHT22;6865;52.552;13.434;2023-07-20T02:40:10;16.50;99.90
13589;DHT22;6865;52.552;13.434;2023-07-20T02:42:37;16.40;99.90
13589;DHT22;6865;52.552;13.434;2023-07-20T02:45:05;16.40;99.90
13589;DHT22;6865;52.552;13.434;2023-07-20T02:47:32;16.30;99.90
13589;DHT22;6865;52.552;13.434;2023-07-20T02:49:59;16.20;99.90
13589;DHT22;6865;52.552;13.434;2023-07-20T02:52:26;16.10;99.90
13589;DHT22;6865;52.552;13.434;2023-07-20T02:54:53;16.10;99.90
13589;DHT22;6865;52.552;13.434;2023-07-20T02:57:19;16.10;99.90
13589;DHT22;6865;52.552;13.434;2023-07-20T02:59:46;16.10;99.90
13589;DHT22;6865;52.552;13.434;2023-07-20T03:02:13;16.20;99.90
13589;DHT22;6865;52.552;13.434;2023-07-20T03:04:40;16.20;99.90
13589;DHT22;6865;52.552;13.434;2023-07-20T03:07:06;16.20;99.90
13589;DHT22;6865;52.552;13.434;2023-07-20T03:09:34;16.20;99.90
13589;DHT22;6865;52.552;13.434;2023-07-20T03:12:01;16.10;99.90
13589;DHT22;6865;52.552;13.434;2023-07-20T03:14:28;16.20;99.90
13589;DHT22;6865;52.552;13.434;2023-07-20T03:16:54;16.20;99.90
13589;DHT22;6865;52.552;13.434;2023-07-20T03:19:21;16.00;99.90
13589;DHT22;6865;52.552;13.434;2023-07-20T03:21:48;15.90;99.90
13589;DHT22;6865;52.552;13.434;2023-07-20T03:24:16;15.90;99.90
13589;DHT22;6865;52.552;13.434;2023-07-20T03:26:42;16.00;99.90
13589;DHT22;6865;52.552;13.434;2023-07-20T03:29:09;16.00;99.90
13589;DHT22;6865;52.552;13.434;2023-07-20T03:31:36;16.10;99.90
13589;DHT22;6865;52.552;13.434;2023-07-20T03:34:02;16.10;99.90
13589;DHT22;6865;52.552;13.434;2023-07-20T03:36:29;16.10;99.90
13589;DHT22;6865;52.552;13.434;2023-07-20T03:38:56;16.10;99.90
13589;DHT22;6865;52.552;13.434;2023-07-20T03:41:22;16.10;99.90
13589;DHT22;6865;52.552;13.434;2023-07-20T03:43:49;16.10;99.90
13589;DHT22;6865;52.552;13.434;2023-07-20T03:46:16;16.10;99.90
13589;DHT22;6865;52.552;13.434;2023-07-20T03:48:43;16.10;99.90
13589;DHT22;6865;52.552;13.434;2023-07-20T03:51:10;16.10;99.90
13589;DHT22;6865;52.552;13.434;2023-07-20T03:53:36;16.00;99.90
13589;DHT22;6865;52.552;13.434;2023-07-20T03:56:03;16.00;99.90
13589;DHT22;6865;52.552;13.434;2023-07-20T03:58:30;16.00;99.90
13589;DHT22;6865;52.552;13.434;2023-07-20T04:00:57;16.20;99.90
13589;DHT22;6865;52.552;13.434;2023-07-20T04:03:25;16.00;99.90
13589;DHT22;6865;52.552;13.434;2023-07-20T04:05:54;16.00;99.90
13589;DHT22;6865;52.552;13.434;2023-07-20T04:08:23;16.00;99.90
13589;DHT22;6865;52.552;13.434;2023-07-20T04:10:51;16.10;99.90
13589;DHT22;6865;52.552;13.434;2023-07-20T04:13:18;16.10;99.90
13589;DHT22;6865;52.552;13.434;2023-07-20T04:15:45;16.10;99.90
13589;DHT22;6865;52.552;13.434;2023-07-20T04:18:11;16.10;99.90
13589;DHT22;6865;52.552;13.434;2023-07-20T04:20:38;16.10;99.90
13589;DHT22;6865;52.552;13.434;2023-07-20T04:23:05;16.00;99.90
13589;DHT22;6865;52.552;13.434;2023-07-20T04:25:32;16.10;99.90
13589;DHT22;6865;52.552;13.434;2023-07-20T04:28:06;16.10;99.90
13589;DHT22;6865;52.552;13.434;2023-07-20T04:30:37;16.10;99.90
13589;DHT22;6865;52.552;13.434;2023-07-20T04:33:06;16.10;99.90
13589;DHT22;6865;52.552;13.434;2023-07-20T04:35:53;16.20;99.90
13589;DHT22;6865;52.552;13.434;2023-07-20T04:38:21;16.30;99.90
13589;DHT22;6865;52.552;13.434;2023-07-20T04:40:49;16.30;99.90
13589;DHT22;6865;52.552;13.434;2023-07-20T04:43:17;16.40;99.90
13589;DHT22;6865;52.552;13.434;2023-07-20T04:45:44;16.40;99.90
13589;DHT22;6865;52.552;13.434;2023-07-20T04:48:13;16.40;99.90
13589;DHT22;6865;52.552;13.434;2023-07-20T04:50:40;16.40;99.90
13589;DHT22;6865;52.552;13.434;2023-07-20T04:53:11;16.50;99.90
13589;DHT22;6865;52.552;13.434;2023-07-20T04:55:39;16.60;99.90
13589;DHT22;6865;52.552;13.434;2023-07-20T04:58:06;16.60;99.90
13589;DHT22;6865;52.552;13.434;2023-07-20T05:00:34;16.60;99.90
13589;DHT22;6865;52.552;13.434;2023-07-20T05:03:01;16.50;99.90
13589;DHT22;6865;52.552;13.434;2023-07-20T05:05:28;16.50;99.90
13589;DHT22;6865;52.552;13.434;2023-07-20T05:07:55;16.60;99.90
13589;DHT22;6865;52.552;13.434;2023-07-20T05:10:21;16.50;99.90
13589;DHT22;6865;52.552;13.434;2023-07-20T05:12:48;16.70;99.90
13589;DHT22;6865;52.552;13.434;2023-07-20T05:15:15;16.80;99.90
13589;DHT22;6865;52.552;13.434;2023-07-20T05:17:42;16.80;99.90
13589;DHT22;6865;52.552;13.434;2023-07-20T05:20:08;16.90;99.90
13589;DHT22;6865;52.552;13.434;2023-07-20T05:22:36;16.90;99.90
13589;DHT22;6865;52.552;13.434;2023-07-20T05:25:07;17.00;99.90
13589;DHT22;6865;52.552;13.434;2023-07-20T05:27:38;17.00;99.90
13589;DHT22;6865;52.552;13.434;2023-07-20T05:30:06;17.00;99.90
13589;DHT22;6865;52.552;13.434;2023-07-20T05:32:34;17.10;99.90
13589;DHT22;6865;52.552;13.434;2023-07-20T05:35:01;17.00;99.90
13589;DHT22;6865;52.552;13.434;2023-07-20T05:37:28;17.00;99.90
13589;DHT22;6865;52.552;13.434;2023-07-20T05:39:55;17.00;99.90
13589;DHT22;6865;52.552;13.434;2023-07-20T05:42:22;17.10;99.90
13589;DHT22;6865;52.552;13.434;2023-07-20T05:44:48;17.10;99.90
13589;DHT22;6865;52.552;13.434;2023-07-20T05:47:16;17.10;99.90
13589;DHT22;6865;52.552;13.434;2023-07-20T05:49:43;17.20;99.90
13589;DHT22;6865;52.552;13.434;2023-07-20T05:52:09;17.40;99.90
13589;DHT22;6865;52.552;13.434;2023-07-20T05:54:36;17.20;99.90
13589;DHT22;6865;52.552;13.434;2023-07-20T05:57:03;17.80;99.90
13589;DHT22;6865;52.552;13.434;2023-07-20T05:59:30;17.90;99.90
13589;DHT22;6865;52.552;13.434;2023-07-20T06:01:56;18.00;99.90
13589;DHT22;6865;52.552;13.434;2023-07-20T06:04:23;18.10;99.90
13589;DHT22;6865;52.552;13.434;2023-07-20T06:06:50;18.20;99.90
13589;DHT22;6865;52.552;13.434;2023-07-20T06:09:16;18.30;99.90
13589;DHT22;6865;52.552;13.434;2023-07-20T06:11:43;18.30;99.90
13589;DHT22;6865;52.552;13.434;2023-07-20T06:14:10;18.50;99.90
13589;DHT22;6865;52.552;13.434;2023-07-20T06:16:37;18.50;99.90
13589;DHT22;6865;52.552;13.434;2023-07-20T06:19:03;18.20;99.90
13589;DHT22;6865;52.552;13.434;2023-07-20T06:21:30;18.00;99.90
13589;DHT22;6865;52.552;13.434;2023-07-20T06:23:57;18.00;99.90
13589;DHT22;6865;52.552;13.434;2023-07-20T06:26:25;18.10;99.90
13589;DHT22;6865;52.552;13.434;2023-07-20T06:28:52;18.20;99.90
13589;DHT22;6865;52.552;13.434;2023-07-20T06:31:18;18.40;99.90
13589;DHT22;6865;52.552;13.434;2023-07-20T06:33:45;18.20;99.90
13589;DHT22;6865;52.552;13.434;2023-07-20T06:36:12;18.00;99.90
13589;DHT22;6865;52.552;13.434;2023-07-20T06:38:39;18.00;99.90
13589;DHT22;6865;52.552;13.434;2023-07-20T06:41:05;17.90;99.90
13589;DHT22;6865;52.552;13.434;2023-07-20T06:43:35;18.10;99.90
13589;DHT22;6865;52.552;13.434;2023-07-20T06:46:04;18.10;99.90
13589;DHT22;6865;52.552;13.434;2023-07-20T06:48:31;18.30;99.90
13589;DHT22;6865;52.552;13.434;2023-07-20T06:50:58;18.30;99.90
13589;DHT22;6865;52.552;13.434;2023-07-20T06:53:25;18.40;99.90
13589;DHT22;6865;52.552;13.434;2023-07-20T06:55:51;18.40;99.90
13589;DHT22;6865;52.552;13.434;2023-07-20T06:58:18;18.40;99.90
13589;DHT22;6865;52.552;13.434;2023-07-20T07:00:45;18.50;99.90
13589;DHT22;6865;52.552;13.434;2023-07-20T07:03:12;18.70;99.90
13589;DHT22;6865;52.552;13.434;2023-07-20T07:05:39;18.80;99.90
13589;DHT22;6865;52.552;13.434;2023-07-20T07:08:06;18.70;99.90
13589;DHT22;6865;52.552;13.434;2023-07-20T07:10:35;18.90;99.90
13589;DHT22;6865;52.552;13.434;2023-07-20T07:13:03;19.20;99.90
13589;DHT22;6865;52.552;13.434;2023-07-20T07:15:31;19.30;99.90
13589;DHT22;6865;52.552;13.434;2023-07-20T07:17:59;18.70;99.90
13589;DHT22;6865;52.552;13.434;2023-07-20T07:20:26;19.00;99.90
13589;DHT22;6865;52.552;13.434;2023-07-20T07:22:55;18.90;99.90
13589;DHT22;6865;52.552;13.434;2023-07-20T07:25:22;19.00;99.90
13589;DHT22;6865;52.552;13.434;2023-07-20T07:27:50;18.90;99.90
13589;DHT22;6865;52.552;13.434;2023-07-20T07:30:18;18.60;99.90
13589;DHT22;6865;52.552;13.434;2023-07-20T07:32:44;18.60;99.90
13589;DHT22;6865;52.552;13.434;2023-07-20T07:35:11;18.70;99.90
13589;DHT22;6865;52.552;13.434;2023-07-20T07:37:38;19.10;99.90
13589;DHT22;6865;52.552;13.434;2023-07-20T07:40:25;19.50;99.90
13589;DHT22;6865;52.552;13.434;2023-07-20T07:42:51;19.70;99.90
13589;DHT22;6865;52.552;13.434;2023-07-20T07:45:18;19.90;99.90
13589;DHT22;6865;52.552;13.434;2023-07-20T07:47:45;19.90;99.90
13589;DHT22;6865;52.552;13.434;2023-07-20T07:50:11;20.00;99.90
13589;DHT22;6865;52.552;13.434;2023-07-20T07:52:38;20.00;99.90
13589;DHT22;6865;52.552;13.434;2023-07-20T07:55:06;20.30;99.90
13589;DHT22;6865;52.552;13.434;2023-07-20T07:57:32;20.60;99.90
13589;DHT22;6865;52.552;13.434;2023-07-20T07:59:59;20.50;99.90
13589;DHT22;6865;52.552;13.434;2023-07-20T08:02:26;20.60;99.90
13589;DHT22;6865;52.552;13.434;2023-07-20T08:04:52;20.90;99.90
13589;DHT22;6865;52.552;13.434;2023-07-20T08:07:19;21.20;99.90
13589;DHT22;6865;52.552;13.434;2023-07-20T08:09:46;21.10;99.90
13589;DHT22;6865;52.552;13.434;2023-07-20T08:12:12;21.40;99.90
13589;DHT22;6865;52.552;13.434;2023-07-20T08:14:40;21.40;99.90
13589;DHT22;6865;52.552;13.434;2023-07-20T08:17:06;21.20;99.90
13589;DHT22;6865;52.552;13.434;2023-07-20T08:19:33;21.20;99.90
13589;DHT22;6865;52.552;13.434;2023-07-20T08:22:02;21.00;99.90
13589;DHT22;6865;52.552;13.434;2023-07-20T08:24:29;20.90;99.90
13589;DHT22;6865;52.552;13.434;2023-07-20T08:26:56;20.80;99.90
13589;DHT22;6865;52.552;13.434;2023-07-20T08:29:24;20.60;99.90
13589;DHT22;6865;52.552;13.434;2023-07-20T08:31:50;20.30;99.90
13589;DHT22;6865;52.552;13.434;2023-07-20T08:34:17;20.60;99.90
13589;DHT22;6865;52.552;13.434;2023-07-20T08:36:58;20.40;99.90
13589;DHT22;6865;52.552;13.434;2023-07-20T08:39:25;20.60;99.90
13589;DHT22;6865;52.552;13.434;2023-07-20T08:41:51;20.80;99.90
13589;DHT22;6865;52.552;13.434;2023-07-20T08:44:18;21.00;99.90
13589;DHT22;6865;52.552;13.434;2023-07-20T08:46:47;20.90;99.90
13589;DHT22;6865;52.552;13.434;2023-07-20T08:49:17;20.70;99.90
13589;DHT22;6865;52.552;13.434;2023-07-20T08:51:43;20.60;99.90
13589;DHT22;6865;52.552;13.434;2023-07-20T08:54:12;20.70;99.90
13589;DHT22;6865;52.552;13.434;2023-07-20T08:56:41;21.00;99.00
13589;DHT22;6865;52.552;13.434;2023-07-20T08:59:12;21.10;98.90
13589;DHT22;6865;52.552;13.434;2023-07-20T09:01:41;21.20;98.50
13589;DHT22;6865;52.552;13.434;2023-07-20T09:04:08;21.20;97.60
13589;DHT22;6865;52.552;13.434;2023-07-20T09:06:35;21.00;97.60
13589;DHT22;6865;52.552;13.434;2023-07-20T09:09:02;21.00;97.30
13589;DHT22;6865;52.552;13.434;2023-07-20T09:11:29;21.10;97.50
13589;DHT22;6865;52.552;13.434;2023-07-20T09:14:06;21.60;97.00
13589;DHT22;6865;52.552;13.434;2023-07-20T09:16:50;21.80;95.60
13589;DHT22;6865;52.552;13.434;2023-07-20T09:19:17;21.80;95.40
13589;DHT22;6865;52.552;13.434;2023-07-20T09:21:46;21.70;95.60
13589;DHT22;6865;52.552;13.434;2023-07-20T09:24:14;21.80;95.60
13589;DHT22;6865;52.552;13.434;2023-07-20T09:26:43;21.50;95.30
13589;DHT22;6865;52.552;13.434;2023-07-20T09:29:10;21.60;95.60
13589;DHT22;6865;52.552;13.434;2023-07-20T09:31:38;21.50;95.90
13589;DHT22;6865;52.552;13.434;2023-07-20T09:34:07;21.10;96.30
13589;DHT22;6865;52.552;13.434;2023-07-20T09:36:36;21.00;96.40
13589;DHT22;6865;52.552;13.434;2023-07-20T09:39:05;21.00;95.90
13589;DHT22;6865;52.552;13.434;2023-07-20T09:41:41;20.60;97.00
13589;DHT22;6865;52.552;13.434;2023-07-20T09:44:15;20.50;96.80
13589;DHT22;6865;52.552;13.434;2023-07-20T09:46:46;20.50;96.90
13589;DHT22;6865;52.552;13.434;2023-07-20T09:49:19;20.30;96.80
13589;DHT22;6865;52.552;13.434;2023-07-20T09:51:49;20.10;97.20
13589;DHT22;6865;52.552;13.434;2023-07-20T09:54:17;19.90;98.30
13589;DHT22;6865;52.552;13.434;2023-07-20T09:56:45;19.90;99.10
13589;DHT22;6865;52.552;13.434;2023-07-20T09:59:13;20.00;99.40
13589;DHT22;6865;52.552;13.434;2023-07-20T10:01:41;19.90;99.50
13589;DHT22;6865;52.552;13.434;2023-07-20T10:04:11;19.70;99.90
13589;DHT22;6865;52.552;13.434;2023-07-20T10:06:42;19.70;99.90
13589;DHT22;6865;52.552;13.434;2023-07-20T10:09:10;19.90;99.90
13589;DHT22;6865;52.552;13.434;2023-07-20T10:11:45;19.90;99.90
13589;DHT22;6865;52.552;13.434;2023-07-20T10:14:33;20.10;99.90
13589;DHT22;6865;52.552;13.434;2023-07-20T10:17:03;20.20;99.90
13589;DHT22;6865;52.552;13.434;2023-07-20T10:19:47;20.20;99.90
13589;DHT22;6865;52.552;13.434;2023-07-20T10:22:22;20.00;99.90
13589;DHT22;6865;52.552;13.434;2023-07-20T10:24:51;20.00;99.90
13589;DHT22;6865;52.552;13.434;2023-07-20T10:27:20;20.00;99.90
13589;DHT22;6865;52.552;13.434;2023-07-20T10:29:47;19.90;99.90
13589;DHT22;6865;52.552;13.434;2023-07-20T10:32:14;20.10;99.90
13589;DHT22;6865;52.552;13.434;2023-07-20T10:34:41;20.40;99.90
13589;DHT22;6865;52.552;13.434;2023-07-20T10:37:08;20.50;99.50
13589;DHT22;6865;52.552;13.434;2023-07-20T10:39:35;20.60;98.60
13589;DHT22;6865;52.552;13.434;2023-07-20T10:42:08;20.80;97.70
13589;DHT22;6865;52.552;13.434;2023-07-20T10:44:37;20.60;98.00
13589;DHT22;6865;52.552;13.434;2023-07-20T10:47:12;20.40;98.40
13589;DHT22;6865;52.552;13.434;2023-07-20T10:49:58;20.30;98.80
13589;DHT22;6865;52.552;13.434;2023-07-20T10:52:37;20.30;99.10
13589;DHT22;6865;52.552;13.434;2023-07-20T10:55:16;20.40;99.70
13589;DHT22;6865;52.552;13.434;2023-07-20T10:57:44;20.50;99.30
13589;DHT22;6865;52.552;13.434;2023-07-20T11:00:30;20.70;99.10
13589;DHT22;6865;52.552;13.434;2023-07-20T11:03:03;20.60;99.20
13589;DHT22;6865;52.552;13.434;2023-07-20T11:05:39;20.40;99.20
13589;DHT22;6865;52.552;13.434;2023-07-20T11:08:11;20.60;98.90
13589;DHT22;6865;52.552;13.434;2023-07-20T11:10:38;20.70;98.30
13589;DHT22;6865;52.552;13.434;2023-07-20T11:13:20;20.90;98.10
13589;DHT22;6865;52.552;13.434;2023-07-20T11:18:26;21.50;97.20
13589;DHT22;6865;52.552;13.434;2023-07-20T11:20:53;21.80;96.60
13589;DHT22;6865;52.552;13.434;2023-07-20T11:23:20;21.50;96.50
13589;DHT22;6865;52.552;13.434;2023-07-20T11:25:47;21.30;96.50
13589;DHT22;6865;52.552;13.434;2023-07-20T11:28:13;21.20;96.70
13589;DHT22;6865;52.552;13.434;2023-07-20T11:30:40;21.20;96.50
13589;DHT22;6865;52.552;13.434;2023-07-20T11:33:10;21.50;96.50
13589;DHT22;6865;52.552;13.434;2023-07-20T11:35:44;21.60;95.80
13589;DHT22;6865;52.552;13.434;2023-07-20T11:38:13;21.40;95.20
13589;DHT22;6865;52.552;13.434;2023-07-20T11:40:44;21.30;95.20
13589;DHT22;6865;52.552;13.434;2023-07-20T11:43:12;21.40;95.60
13589;DHT22;6865;52.552;13.434;2023-07-20T11:45:42;21.50;95.00
13589;DHT22;6865;52.552;13.434;2023-07-20T11:48:15;21.80;94.60
13589;DHT22;6865;52.552;13.434;2023-07-20T11:50:41;22.00;94.50
13589;DHT22;6865;52.552;13.434;2023-07-20T11:53:09;22.30;93.40
13589;DHT22;6865;52.552;13.434;2023-07-20T11:55:36;22.40;93.10
13589;DHT22;6865;52.552;13.434;2023-07-20T11:58:03;22.30;92.90
13589;DHT22;6865;52.552;13.434;2023-07-20T12:00:31;22.30;92.80
13589;DHT22;6865;52.552;13.434;2023-07-20T12:02:58;22.20;92.60
13589;DHT22;6865;52.552;13.434;2023-07-20T12:05:24;22.20;92.50
13589;DHT22;6865;52.552;13.434;2023-07-20T12:07:53;22.30;92.50
13589;DHT22;6865;52.552;13.434;2023-07-20T12:10:28;22.00;93.60
13589;DHT22;6865;52.552;13.434;2023-07-20T12:13:01;21.70;95.30
13589;DHT22;6865;52.552;13.434;2023-07-20T12:15:28;21.30;96.10
13589;DHT22;6865;52.552;13.434;2023-07-20T12:17:58;20.90;94.90
13589;DHT22;6865;52.552;13.434;2023-07-20T12:20:27;20.90;95.00
13589;DHT22;6865;52.552;13.434;2023-07-20T12:23:03;20.70;95.40
13589;DHT22;6865;52.552;13.434;2023-07-20T12:28:07;20.60;96.50
13589;DHT22;6865;52.552;13.434;2023-07-20T12:30:34;20.70;96.50
13589;DHT22;6865;52.552;13.434;2023-07-20T12:33:02;20.70;96.30
13589;DHT22;6865;52.552;13.434;2023-07-20T12:35:30;20.80;96.10
13589;DHT22;6865;52.552;13.434;2023-07-20T12:37:57;21.20;95.30
13589;DHT22;6865;52.552;13.434;2023-07-20T12:40:24;21.40;93.90
13589;DHT22;6865;52.552;13.434;2023-07-20T12:42:51;21.20;93.10
13589;DHT22;6865;52.552;13.434;2023-07-20T12:45:18;20.90;93.70
13589;DHT22;6865;52.552;13.434;2023-07-20T12:47:45;20.70;94.20
13589;DHT22;6865;52.552;13.434;2023-07-20T12:50:12;20.60;94.60
13589;DHT22;6865;52.552;13.434;2023-07-20T12:52:40;20.80;94.50
13589;DHT22;6865;52.552;13.434;2023-07-20T12:55:07;20.80;94.10
13589;DHT22;6865;52.552;13.434;2023-07-20T12:57:35;21.00;93.60
13589;DHT22;6865;52.552;13.434;2023-07-20T13:00:07;21.20;91.70
13589;DHT22;6865;52.552;13.434;2023-07-20T13:02:37;21.20;86.80
13589;DHT22;6865;52.552;13.434;2023-07-20T13:05:04;21.30;87.00
13589;DHT22;6865;52.552;13.434;2023-07-20T13:07:32;21.40;86.90
13589;DHT22;6865;52.552;13.434;2023-07-20T13:10:03;21.40;87.40
13589;DHT22;6865;52.552;13.434;2023-07-20T13:12:32;21.50;89.00
13589;DHT22;6865;52.552;13.434;2023-07-20T13:14:59;21.70;89.30
13589;DHT22;6865;52.552;13.434;2023-07-20T13:17:27;21.90;86.50
13589;DHT22;6865;52.552;13.434;2023-07-20T13:19:55;21.90;83.10
13589;DHT22;6865;52.552;13.434;2023-07-20T13:22:21;21.90;80.70
13589;DHT22;6865;52.552;13.434;2023-07-20T13:24:49;21.90;81.20
13589;DHT22;6865;52.552;13.434;2023-07-20T13:27:17;21.90;80.20
13589;DHT22;6865;52.552;13.434;2023-07-20T13:29:45;21.90;80.20
13589;DHT22;6865;52.552;13.434;2023-07-20T13:32:15;21.80;78.10
13589;DHT22;6865;52.552;13.434;2023-07-20T13:34:42;21.70;78.40
13589;DHT22;6865;52.552;13.434;2023-07-20T13:37:10;21.90;78.70
13589;DHT22;6865;52.552;13.434;2023-07-20T13:39:39;22.00;77.20
13589;DHT22;6865;52.552;13.434;2023-07-20T13:42:06;22.10;76.80
13589;DHT22;6865;52.552;13.434;2023-07-20T13:44:33;22.20;76.20
13589;DHT22;6865;52.552;13.434;2023-07-20T13:47:01;22.30;75.00
13589;DHT22;6865;52.552;13.434;2023-07-20T13:49:31;22.20;73.80
13589;DHT22;6865;52.552;13.434;2023-07-20T13:52:11;22.20;74.50
13589;DHT22;6865;52.552;13.434;2023-07-20T13:54:41;22.30;74.10
13589;DHT22;6865;52.552;13.434;2023-07-20T13:57:14;22.40;72.70
13589;DHT22;6865;52.552;13.434;2023-07-20T13:59:44;22.70;72.10
13589;DHT22;6865;52.552;13.434;2023-07-20T14:02:13;22.90;70.80
13589;DHT22;6865;52.552;13.434;2023-07-20T14:04:43;23.00;70.20
13589;DHT22;6865;52.552;13.434;2023-07-20T14:07:10;22.90;70.80
13589;DHT22;6865;52.552;13.434;2023-07-20T14:09:37;22.90;69.90
13589;DHT22;6865;52.552;13.434;2023-07-20T14:12:24;23.00;69.50
13589;DHT22;6865;52.552;13.434;2023-07-20T14:14:51;23.10;68.20
13589;DHT22;6865;52.552;13.434;2023-07-20T14:17:17;23.30;68.40
13589;DHT22;6865;52.552;13.434;2023-07-20T14:19:44;23.30;67.60
13589;DHT22;6865;52.552;13.434;2023-07-20T14:22:11;23.40;67.60
13589;DHT22;6865;52.552;13.434;2023-07-20T14:24:38;23.30;66.90
13589;DHT22;6865;52.552;13.434;2023-07-20T14:27:05;23.10;66.90
13589;DHT22;6865;52.552;13.434;2023-07-20T14:29:31;23.10;66.70
13589;DHT22;6865;52.552;13.434;2023-07-20T14:32:00;23.20;66.20
13589;DHT22;6865;52.552;13.434;2023-07-20T14:34:26;23.20;65.80
13589;DHT22;6865;52.552;13.434;2023-07-20T14:36:53;23.10;66.10
13589;DHT22;6865;52.552;13.434;2023-07-20T14:39:20;23.10;65.40
13589;DHT22;6865;52.552;13.434;2023-07-20T14:41:47;23.10;65.50
13589;DHT22;6865;52.552;13.434;2023-07-20T14:44:14;23.30;65.70
13589;DHT22;6865;52.552;13.434;2023-07-20T14:46:40;22.90;65.50
13589;DHT22;6865;52.552;13.434;2023-07-20T14:49:07;22.70;66.40
13589;DHT22;6865;52.552;13.434;2023-07-20T14:51:34;22.90;67.10
13589;DHT22;6865;52.552;13.434;2023-07-20T14:54:03;22.90;66.90
13589;DHT22;6865;52.552;13.434;2023-07-20T14:56:30;22.90;66.80
13589;DHT22;6865;52.552;13.434;2023-07-20T14:58:57;22.90;64.70
13589;DHT22;6865;52.552;13.434;2023-07-20T15:01:24;23.00;64.20
13589;DHT22;6865;52.552;13.434;2023-07-20T15:03:51;23.00;63.30
13589;DHT22;6865;52.552;13.434;2023-07-20T15:06:23;23.00;63.80
13589;DHT22;6865;52.552;13.434;2023-07-20T15:08:51;23.00;63.80
13589;DHT22;6865;52.552;13.434;2023-07-20T15:11:17;23.00;63.90
13589;DHT22;6865;52.552;13.434;2023-07-20T15:13:44;23.00;64.00
13589;DHT22;6865;52.552;13.434;2023-07-20T15:16:11;23.00;64.50
13589;DHT22;6865;52.552;13.434;2023-07-20T15:18:38;23.20;64.10
13589;DHT22;6865;52.552;13.434;2023-07-20T15:21:14;23.00;63.80
13589;DHT22;6865;52.552;13.434;2023-07-20T15:23:41;22.90;63.00
13589;DHT22;6865;52.552;13.434;2023-07-20T15:26:08;22.70;63.20
13589;DHT22;6865;52.552;13.434;2023-07-20T15:28:35;22.70;64.00
13589;DHT22;6865;52.552;13.434;2023-07-20T15:31:03;22.70;63.90
13589;DHT22;6865;52.552;13.434;2023-07-20T15:33:30;22.80;64.00
13589;DHT22;6865;52.552;13.434;2023-07-20T15:35:57;22.90;64.10
13589;DHT22;6865;52.552;13.434;2023-07-20T15:38:24;22.90;64.20
13589;DHT22;6865;52.552;13.434;2023-07-20T15:40:51;22.80;64.30
13589;DHT22;6865;52.552;13.434;2023-07-20T15:43:17;22.70;64.10
13589;DHT22;6865;52.552;13.434;2023-07-20T15:45:48;22.50;63.80
13589;DHT22;6865;52.552;13.434;2023-07-20T15:48:18;22.40;63.80